sensor_id;sensor_type;location;lat;lon;timestamp;temperature;humidity
31765;DHT22;18338;53.240;8.798;2024-03-07T00:00:18;0.20;99.90
31765;DHT22;18338;53.240;8.798;2024-03-07T00:02:49;0.30;99.90
31765;DHT22;18338;53.240;8.798;2024-03-07T00:05:18;0.30;99.90
31765;DHT22;18338;53.240;8.798;2024-03-07T00:07:45;0.30;99.90
31765;DHT22;18338;53.240;8.798;2024-03-07T00:10:13;0.30;99.90
31765;DHT22;18338;53.240;8.798;2024-03-07T00:12:42;0.20;99.90
31765;DHT22;18338;53.240;8.798;2024-03-07T00:15:11;0.20;99.90
31765;DHT22;18338;53.240;8.798;2024-03-07T00:17:40;0.20;99.90
31765;DHT22;18338;53.240;8.798;2024-03-07T00:20:07;0.20;99.90
31765;DHT22;18338;53.240;8.798;2024-03-07T00:22:42;0.10;99.90
31765;DHT22;18338;53.240;8.798;2024-03-07T00:25:09;0.10;99.90
31765;DHT22;18338;53.240;8.798;2024-03-07T00:27:37;0.10;99.90
31765;DHT22;18338;53.240;8.798;2024-03-07T00:30:06;0.10;99.90
31765;DHT22;18338;53.240;8.798;2024-03-07T00:32:35;0.20;99.90
31765;DHT22;18338;53.240;8.798;2024-03-07T00:35:08;0.10;99.90
31765;DHT22;18338;53.240;8.798;2024-03-07T00:37:36;0.20;99.90
31765;DHT22;18338;53.240;8.798;2024-03-07T00:40:03;0.10;99.90
31765;DHT22;18338;53.240;8.798;2024-03-07T00:42:30;0.10;99.90
31765;DHT22;18338;53.240;8.798;2024-03-07T00:44:56;0.10;99.90
31765;DHT22;18338;53.240;8.798;2024-03-07T00:47:23;0.10;99.90
31765;DHT22;18338;53.240;8.798;2024-03-07T00:49:50;0.00;99.90
31765;DHT22;18338;53.240;8.798;2024-03-07T00:52:17;0.10;99.90
31765;DHT22;18338;53.240;8.798;2024-03-07T00:54:44;0.10;99.90
31765;DHT22;18338;53.240;8.798;2024-03-07T00:57:11;0.20;99.90
31765;DHT22;18338;53.240;8.798;2024-03-07T00:59:37;0.20;99.90
31765;DHT22;18338;53.240;8.798;2024-03-07T01:02:04;0.20;99.90
31765;DHT22;18338;53.240;8.798;2024-03-07T01:04:31;0.20;99.90
31765;DHT22;18338;53.240;8.798;2024-03-07T01:07:00;0.20;99.90
31765;DHT22;18338;53.240;8.798;2024-03-07T01:09:27;0.20;99.90
31765;DHT22;18338;53.240;8.798;2024-03-07T01:11:57;0.30;99.90
31765;DHT22;18338;53.240;8.798;2024-03-07T01:14:25;0.30;99.90
31765;DHT22;18338;53.240;8.798;2024-03-07T01:16:52;0.30;99.90
31765;DHT22;18338;53.240;8.798;2024-03-07T01:19:19;0.20;99.90
31765;DHT22;18338;53.240;8.798;2024-03-07T01:21:45;0.30;99.90
31765;DHT22;18338;53.240;8.798;2024-03-07T01:24:12;0.20;99.90
31765;DHT22;18338;53.240;8.798;2024-03-07T01:26:39;0.30;99.90
31765;DHT22;18338;53.240;8.798;2024-03-07T01:29:06;0.40;99.90
31765;DHT22;18338;53.240;8.798;2024-03-07T01:31:33;0.50;99.90
31765;DHT22;18338;53.240;8.798;2024-03-07T01:34:00;0.80;99.90
31765;DHT22;18338;53.240;8.798;2024-03-07T01:36:27;0.90;99.90
31765;DHT22;18338;53.240;8.798;2024-03-07T01:38:54;1.00;99.90
31765;DHT22;18338;53.240;8.798;2024-03-07T01:41:21;1.10;99.90
31765;DHT22;18338;53.240;8.798;2024-03-07T01:43:47;1.10;99.90
31765;DHT22;18338;53.240;8.798;2024-03-07T01:46:14;1.20;99.90
31765;DHT22;18338;53.240;8.798;2024-03-07T01:48:41;1.30;99.90
31765;DHT22;18338;53.240;8.798;2024-03-07T01:51:08;1.30;99.90
31765;DHT22;18338;53.240;8.798;2024-03-07T01:53:35;1.30;99.90
31765;DHT22;18338;53.240;8.798;2024-03-07T01:56:03;1.30;99.90
31765;DHT22;18338;53.240;8.798;2024-03-07T01:58:31;1.40;99.90
31765;DHT22;18338;53.240;8.798;2024-03-07T02:00:59;1.40;99.90
31765;DHT22;18338;53.240;8.798;2024-03-07T02:03:26;1.40;99.90
31765;DHT22;18338;53.240;8.798;2024-03-07T02:05:53;1.40;99.90
31765;DHT22;18338;53.240;8.798;2024-03-07T02:08:21;1.50;99.90
31765;DHT22;18338;53.240;8.798;2024-03-07T02:10:48;1.60;99.90
31765;DHT22;18338;53.240;8.798;2024-03-07T02:13:15;1.60;99.90
31765;DHT22;18338;53.240;8.798;2024-03-07T02:15:42;1.70;99.90
31765;DHT22;18338;53.240;8.798;2024-03-07T02:18:10;1.70;99.90
31765;DHT22;18338;53.240;8.798;2024-03-07T02:20:37;1.70;99.90
31765;DHT22;18338;53.240;8.798;2024-03-07T02:23:04;1.80;99.90
31765;DHT22;18338;53.240;8.798;2024-03-07T02:25:31;1.80;99.90
31765;DHT22;18338;53.240;8.798;2024-03-07T02:27:59;1.90;99.90
31765;DHT22;18338;53.240;8.798;2024-03-07T02:30:26;1.90;99.90
31765;DHT22;18338;53.240;8.798;2024-03-07T02:32:52;2.00;99.90
31765;DHT22;18338;53.240;8.798;2024-03-07T02:35:22;2.00;99.90
31765;DHT22;18338;53.240;8.798;2024-03-07T02:37:50;2.10;99.90
31765;DHT22;18338;53.240;8.798;2024-03-07T02:40:17;2.10;99.90
31765;DHT22;18338;53.240;8.798;2024-03-07T02:42:44;2.20;99.90
31765;DHT22;18338;53.240;8.798;2024-03-07T02:45:11;2.20;99.90
31765;DHT22;18338;53.240;8.798;2024-03-07T02:47:41;2.20;99.90
31765;DHT22;18338;53.240;8.798;2024-03-07T02:50:11;2.30;99.90
31765;DHT22;18338;53.240;8.798;2024-03-07T02:52:38;2.30;99.90
31765;DHT22;18338;53.240;8.798;2024-03-07T02:55:06;2.40;99.90
31765;DHT22;18338;53.240;8.798;2024-03-07T02:57:36;2.40;99.90
31765;DHT22;18338;53.240;8.798;2024-03-07T03:00:04;2.40;99.90
31765;DHT22;18338;53.240;8.798;2024-03-07T03:02:40;2.40;99.90
31765;DHT22;18338;53.240;8.798;2024-03-07T03:05:08;2.50;99.90
31765;DHT22;18338;53.240;8.798;2024-03-07T03:07:36;2.50;99.90
31765;DHT22;18338;53.240;8.798;2024-03-07T03:10:03;2.60;99.90
31765;DHT22;18338;53.240;8.798;2024-03-07T03:12:33;2.60;99.90
31765;DHT22;18338;53.240;8.798;2024-03-07T03:15:06;2.60;99.90
31765;DHT22;18338;53.240;8.798;2024-03-07T03:17:33;2.60;99.90
31765;DHT22;18338;53.240;8.798;2024-03-07T03:20:00;2.70;99.90
31765;DHT22;18338;53.240;8.798;2024-03-07T03:22:27;2.70;99.90
31765;DHT22;18338;53.240;8.798;2024-03-07T03:24:54;2.80;99.90
31765;DHT22;18338;53.240;8.798;2024-03-07T03:27:21;2.80;99.90
31765;DHT22;18338;53.240;8.798;2024-03-07T03:29:48;2.80;99.90
31765;DHT22;18338;53.240;8.798;2024-03-07T03:32:17;2.90;99.90
31765;DHT22;18338;53.240;8.798;2024-03-07T03:34:44;2.90;99.90
31765;DHT22;18338;53.240;8.798;2024-03-07T03:37:10;3.00;99.90
31765;DHT22;18338;53.240;8.798;2024-03-07T03:39:37;3.00;99.90
31765;DHT22;18338;53.240;8.798;2024-03-07T03:42:04;3.00;99.90
31765;DHT22;18338;53.240;8.798;2024-03-07T03:44:33;3.00;99.90
31765;DHT22;18338;53.240;8.798;2024-03-07T03:47:00;3.10;99.90
31765;DHT22;18338;53.240;8.798;2024-03-07T03:49:28;3.00;99.90
31765;DHT22;18338;53.240;8.798;2024-03-07T03:51:55;3.00;99.90
31765;DHT22;18338;53.240;8.798;2024-03-07T03:54:21;3.10;99.90
31765;DHT22;18338;53.240;8.798;2024-03-07T03:56:49;3.10;99.90
31765;DHT22;18338;53.240;8.798;2024-03-07T03:59:15;3.10;99.90
31765;DHT22;18338;53.240;8.798;2024-03-07T04:01:42;3.10;99.90
31765;DHT22;18338;53.240;8.798;2024-03-07T04:04:11;3.10;99.90
31765;DHT22;18338;53.240;8.798;2024-03-07T04:06:38;3.10;99.90
31765;DHT22;18338;53.240;8.798;2024-03-07T04:09:04;3.10;99.90
31765;DHT22;18338;53.240;8.798;2024-03-07T04:11:31;3.20;99.90
31765;DHT22;18338;53.240;8.798;2024-03-07T04:13:59;3.10;99.90
31765;DHT22;18338;53.240;8.798;2024-03-07T04:16:25;3.10;99.90
31765;DHT22;18338;53.240;8.798;2024-03-07T04:18:53;3.20;99.90
31765;DHT22;18338;53.240;8.798;2024-03-07T04:21:19;3.20;99.90
31765;DHT22;18338;53.240;8.798;2024-03-07T04:23:46;3.20;99.90
31765;DHT22;18338;53.240;8.798;2024-03-07T04:26:13;3.20;99.90
31765;DHT22;18338;53.240;8.798;2024-03-07T04:28:40;3.20;99.90
31765;DHT22;18338;53.240;8.798;2024-03-07T04:31:07;3.20;99.90
31765;DHT22;18338;53.240;8.798;2024-03-07T04:33:34;3.20;99.90
31765;DHT22;18338;53.240;8.798;2024-03-07T04:36:00;3.30;99.90
31765;DHT22;18338;53.240;8.798;2024-03-07T04:38:29;3.30;99.90
31765;DHT22;18338;53.240;8.798;2024-03-07T04:40:56;3.30;99.90
31765;DHT22;18338;53.240;8.798;2024-03-07T04:43:23;3.30;99.90
31765;DHT22;18338;53.240;8.798;2024-03-07T04:45:49;3.30;99.90
31765;DHT22;18338;53.240;8.798;2024-03-07T04:48:16;3.30;99.90
31765;DHT22;18338;53.240;8.798;2024-03-07T04:50:43;3.30;99.90
31765;DHT22;18338;53.240;8.798;2024-03-07T04:53:10;3.40;99.90
31765;DHT22;18338;53.240;8.798;2024-03-07T04:55:37;3.40;99.90
31765;DHT22;18338;53.240;8.798;2024-03-07T04:58:03;3.40;99.90
31765;DHT22;18338;53.240;8.798;2024-03-07T05:00:30;3.30;99.90
31765;DHT22;18338;53.240;8.798;2024-03-07T05:02:57;3.40;99.90
31765;DHT22;18338;53.240;8.798;2024-03-07T05:05:24;3.40;99.90
31765;DHT22;18338;53.240;8.798;2024-03-07T05:07:52;3.40;99.90
31765;DHT22;18338;53.240;8.798;2024-03-07T05:10:19;3.50;99.90
31765;DHT22;18338;53.240;8.798;2024-03-07T05:12:47;3.50;99.90
31765;DHT22;18338;53.240;8.798;2024-03-07T05:15:13;3.50;99.90
31765;DHT22;18338;53.240;8.798;2024-03-07T05:17:40;3.40;99.90
31765;DHT22;18338;53.240;8.798;2024-03-07T05:20:10;3.50;99.90
31765;DHT22;18338;53.240;8.798;2024-03-07T05:22:38;3.50;99.90
31765;DHT22;18338;53.240;8.798;2024-03-07T05:25:08;3.50;99.90
31765;DHT22;18338;53.240;8.798;2024-03-07T05:27:35;3.50;99.90
31765;DHT22;18338;53.240;8.798;2024-03-07T05:30:03;3.50;99.90
31765;DHT22;18338;53.240;8.798;2024-03-07T05:32:36;3.50;99.90
31765;DHT22;18338;53.240;8.798;2024-03-07T05:35:03;3.50;99.90
31765;DHT22;18338;53.240;8.798;2024-03-07T05:37:30;3.50;99.90
31765;DHT22;18338;53.240;8.798;2024-03-07T05:39:58;3.50;99.90
31765;DHT22;18338;53.240;8.798;2024-03-07T05:42:26;3.50;99.90
31765;DHT22;18338;53.240;8.798;2024-03-07T05:44:52;3.60;99.90
31765;DHT22;18338;53.240;8.798;2024-03-07T05:47:21;3.60;99.90
31765;DHT22;18338;53.240;8.798;2024-03-07T05:49:48;3.60;99.90
31765;DHT22;18338;53.240;8.798;2024-03-07T05:52:15;3.60;99.90
31765;DHT22;18338;53.240;8.798;2024-03-07T05:54:42;3.60;99.90
31765;DHT22;18338;53.240;8.798;2024-03-07T05:57:11;3.70;99.90
31765;DHT22;18338;53.240;8.798;2024-03-07T05:59:38;3.70;99.90
31765;DHT22;18338;53.240;8.798;2024-03-07T06:02:05;3.70;99.90
31765;DHT22;18338;53.240;8.798;2024-03-07T06:04:32;3.70;99.90
31765;DHT22;18338;53.240;8.798;2024-03-07T06:06:59;3.80;99.90
31765;DHT22;18338;53.240;8.798;2024-03-07T06:09:26;3.80;99.90
31765;DHT22;18338;53.240;8.798;2024-03-07T06:11:53;3.80;99.90
31765;DHT22;18338;53.240;8.798;2024-03-07T06:14:19;3.80;99.90
31765;DHT22;18338;53.240;8.798;2024-03-07T06:16:47;3.90;99.90
31765;DHT22;18338;53.240;8.798;2024-03-07T06:19:13;3.90;99.90
31765;DHT22;18338;53.240;8.798;2024-03-07T06:21:40;3.90;99.90
31765;DHT22;18338;53.240;8.798;2024-03-07T06:24:08;3.90;99.90
31765;DHT22;18338;53.240;8.798;2024-03-07T06:26:37;4.00;99.90
31765;DHT22;18338;53.240;8.798;2024-03-07T06:29:15;4.00;99.90
31765;DHT22;18338;53.240;8.798;2024-03-07T06:31:43;4.10;99.90
31765;DHT22;18338;53.240;8.798;2024-03-07T06:34:10;4.10;99.90
31765;DHT22;18338;53.240;8.798;2024-03-07T06:36:37;4.10;99.90
31765;DHT22;18338;53.240;8.798;2024-03-07T06:39:03;4.20;99.90
31765;DHT22;18338;53.240;8.798;2024-03-07T06:41:33;4.20;99.90
31765;DHT22;18338;53.240;8.798;2024-03-07T06:44:01;4.20;99.90
31765;DHT22;18338;53.240;8.798;2024-03-07T06:46:27;4.30;99.90
31765;DHT22;18338;53.240;8.798;2024-03-07T06:48:55;4.30;99.90
31765;DHT22;18338;53.240;8.798;2024-03-07T06:51:22;4.30;99.90
31765;DHT22;18338;53.240;8.798;2024-03-07T06:53:49;4.40;99.90
31765;DHT22;18338;53.240;8.798;2024-03-07T06:56:17;4.40;99.90
31765;DHT22;18338;53.240;8.798;2024-03-07T06:58:44;4.50;99.90
31765;DHT22;18338;53.240;8.798;2024-03-07T07:01:13;4.50;99.90
31765;DHT22;18338;53.240;8.798;2024-03-07T07:03:42;4.60;99.90
31765;DHT22;18338;53.240;8.798;2024-03-07T07:06:14;4.60;99.90
31765;DHT22;18338;53.240;8.798;2024-03-07T07:08:41;4.70;99.90
31765;DHT22;18338;53.240;8.798;2024-03-07T07:11:07;4.70;99.90
31765;DHT22;18338;53.240;8.798;2024-03-07T07:13:34;4.80;99.90
31765;DHT22;18338;53.240;8.798;2024-03-07T07:16:01;4.90;99.90
31765;DHT22;18338;53.240;8.798;2024-03-07T07:18:28;4.90;99.90
31765;DHT22;18338;53.240;8.798;2024-03-07T07:20:55;5.00;99.90
31765;DHT22;18338;53.240;8.798;2024-03-07T07:23:23;5.00;99.90
31765;DHT22;18338;53.240;8.798;2024-03-07T07:25:50;5.00;99.90
31765;DHT22;18338;53.240;8.798;2024-03-07T07:28:17;5.10;99.90
31765;DHT22;18338;53.240;8.798;2024-03-07T07:30:43;5.20;99.90
31765;DHT22;18338;53.240;8.798;2024-03-07T07:33:11;5.20;99.90
31765;DHT22;18338;53.240;8.798;2024-03-07T07:35:40;5.20;99.90
31765;DHT22;18338;53.240;8.798;2024-03-07T07:38:07;5.30;99.90
31765;DHT22;18338;53.240;8.798;2024-03-07T07:40:37;5.30;99.90
31765;DHT22;18338;53.240;8.798;2024-03-07T07:43:03;5.20;99.90
31765;DHT22;18338;53.240;8.798;2024-03-07T07:45:30;5.20;99.90
31765;DHT22;18338;53.240;8.798;2024-03-07T07:47:59;5.20;99.90
31765;DHT22;18338;53.240;8.798;2024-03-07T07:50:26;5.20;99.90
31765;DHT22;18338;53.240;8.798;2024-03-07T07:52:58;5.20;99.90
31765;DHT22;18338;53.240;8.798;2024-03-07T07:55:26;5.10;99.90
31765;DHT22;18338;53.240;8.798;2024-03-07T07:57:55;5.10;99.90
31765;DHT22;18338;53.240;8.798;2024-03-07T08:00:24;5.10;99.90
31765;DHT22;18338;53.240;8.798;2024-03-07T08:02:53;5.00;99.90
31765;DHT22;18338;53.240;8.798;2024-03-07T08:05:23;5.00;99.90
31765;DHT22;18338;53.240;8.798;2024-03-07T08:07:51;5.00;99.90
31765;DHT22;18338;53.240;8.798;2024-03-07T08:10:18;5.00;99.90
31765;DHT22;18338;53.240;8.798;2024-03-07T08:12:46;5.10;99.90
31765;DHT22;18338;53.240;8.798;2024-03-07T08:15:13;5.10;99.90
31765;DHT22;18338;53.240;8.798;2024-03-07T08:17:45;5.10;99.90
31765;DHT22;18338;53.240;8.798;2024-03-07T08:20:14;5.10;99.90
31765;DHT22;18338;53.240;8.798;2024-03-07T08:22:42;5.20;99.90
31765;DHT22;18338;53.240;8.798;2024-03-07T08:25:13;5.10;99.90
31765;DHT22;18338;53.240;8.798;2024-03-07T08:27:43;5.00;99.90
31765;DHT22;18338;53.240;8.798;2024-03-07T08:30:11;5.10;99.90
31765;DHT22;18338;53.240;8.798;2024-03-07T08:32:43;5.10;99.90
31765;DHT22;18338;53.240;8.798;2024-03-07T08:35:11;5.10;99.90
31765;DHT22;18338;53.240;8.798;2024-03-07T08:37:48;5.10;99.90
31765;DHT22;18338;53.240;8.798;2024-03-07T08:40:23;5.20;99.90
31765;DHT22;18338;53.240;8.798;2024-03-07T08:42:55;5.20;99.90
31765;DHT22;18338;53.240;8.798;2024-03-07T08:45:24;5.30;99.90
31765;DHT22;18338;53.240;8.798;2024-03-07T08:47:53;5.20;99.90
31765;DHT22;18338;53.240;8.798;2024-03-07T08:50:22;5.10;99.90
31765;DHT22;18338;53.240;8.798;2024-03-07T08:52:50;5.10;99.90
31765;DHT22;18338;53.240;8.798;2024-03-07T08:55:19;5.10;99.90
31765;DHT22;18338;53.240;8.798;2024-03-07T08:57:46;5.20;99.90
31765;DHT22;18338;53.240;8.798;2024-03-07T09:00:16;5.30;99.90
31765;DHT22;18338;53.240;8.798;2024-03-07T09:05:21;5.40;99.90
31765;DHT22;18338;53.240;8.798;2024-03-07T09:07:49;5.50;99.90
31765;DHT22;18338;53.240;8.798;2024-03-07T09:10:16;5.70;99.90
31765;DHT22;18338;53.240;8.798;2024-03-07T09:12:49;5.60;99.90
31765;DHT22;18338;53.240;8.798;2024-03-07T09:15:16;5.60;99.90
31765;DHT22;18338;53.240;8.798;2024-03-07T09:17:43;5.70;99.90
31765;DHT22;18338;53.240;8.798;2024-03-07T09:20:14;5.70;99.90
31765;DHT22;18338;53.240;8.798;2024-03-07T09:22:42;5.60;99.90
31765;DHT22;18338;53.240;8.798;2024-03-07T09:25:09;5.60;99.90
31765;DHT22;18338;53.240;8.798;2024-03-07T09:27:37;5.80;99.90
31765;DHT22;18338;53.240;8.798;2024-03-07T09:30:05;5.80;99.90
31765;DHT22;18338;53.240;8.798;2024-03-07T09:32:31;5.90;99.90
31765;DHT22;18338;53.240;8.798;2024-03-07T09:35:00;5.90;99.90
31765;DHT22;18338;53.240;8.798;2024-03-07T09:37:27;5.80;99.90
31765;DHT22;18338;53.240;8.798;2024-03-07T09:39:54;5.90;99.90
31765;DHT22;18338;53.240;8.798;2024-03-07T09:42:21;5.90;99.90
31765;DHT22;18338;53.240;8.798;2024-03-07T09:44:49;5.90;99.90
31765;DHT22;18338;53.240;8.798;2024-03-07T09:47:16;6.00;99.90
31765;DHT22;18338;53.240;8.798;2024-03-07T09:49:45;5.90;99.90
31765;DHT22;18338;53.240;8.798;2024-03-07T09:52:13;6.00;99.90
31765;DHT22;18338;53.240;8.798;2024-03-07T09:54:40;6.10;99.90
31765;DHT22;18338;53.240;8.798;2024-03-07T09:57:07;6.10;99.90
31765;DHT22;18338;53.240;8.798;2024-03-07T09:59:38;6.20;99.90
31765;DHT22;18338;53.240;8.798;2024-03-07T10:02:08;6.30;99.90
31765;DHT22;18338;53.240;8.798;2024-03-07T10:04:49;6.40;99.90
31765;DHT22;18338;53.240;8.798;2024-03-07T10:07:18;6.20;99.90
31765;DHT22;18338;53.240;8.798;2024-03-07T10:09:45;6.20;99.90
31765;DHT22;18338;53.240;8.798;2024-03-07T10:12:12;6.30;99.90
31765;DHT22;18338;53.240;8.798;2024-03-07T10:14:49;6.40;99.90
31765;DHT22;18338;53.240;8.798;2024-03-07T10:17:17;6.40;99.90
31765;DHT22;18338;53.240;8.798;2024-03-07T10:19:47;6.40;99.90
31765;DHT22;18338;53.240;8.798;2024-03-07T10:22:19;6.40;99.90
31765;DHT22;18338;53.240;8.798;2024-03-07T10:24:53;6.40;99.90
31765;DHT22;18338;53.240;8.798;2024-03-07T10:27:23;6.50;99.90
31765;DHT22;18338;53.240;8.798;2024-03-07T10:29:52;6.70;99.90
31765;DHT22;18338;53.240;8.798;2024-03-07T10:32:20;6.80;99.90
31765;DHT22;18338;53.240;8.798;2024-03-07T10:34:49;6.80;99.90
31765;DHT22;18338;53.240;8.798;2024-03-07T10:37:17;6.80;99.90
31765;DHT22;18338;53.240;8.798;2024-03-07T10:39:46;7.00;99.90
31765;DHT22;18338;53.240;8.798;2024-03-07T10:42:14;7.00;99.90
31765;DHT22;18338;53.240;8.798;2024-03-07T10:44:48;7.30;99.90
31765;DHT22;18338;53.240;8.798;2024-03-07T10:47:19;7.30;99.90
31765;DHT22;18338;53.240;8.798;2024-03-07T10:50:03;7.40;99.90
31765;DHT22;18338;53.240;8.798;2024-03-07T10:52:39;7.60;99.90
31765;DHT22;18338;53.240;8.798;2024-03-07T10:57:50;7.70;99.90
31765;DHT22;18338;53.240;8.798;2024-03-07T11:00:18;7.60;99.90
31765;DHT22;18338;53.240;8.798;2024-03-07T11:03:19;7.70;99.90
31765;DHT22;18338;53.240;8.798;2024-03-07T11:05:48;7.90;99.90
31765;DHT22;18338;53.240;8.798;2024-03-07T11:08:15;8.00;99.90
31765;DHT22;18338;53.240;8.798;2024-03-07T11:10:44;8.00;99.90
31765;DHT22;18338;53.240;8.798;2024-03-07T11:13:14;8.20;99.90
31765;DHT22;18338;53.240;8.798;2024-03-07T11:15:46;8.40;99.90
31765;DHT22;18338;53.240;8.798;2024-03-07T11:18:13;8.50;99.90
31765;DHT22;18338;53.240;8.798;2024-03-07T11:20:40;8.40;99.90
31765;DHT22;18338;53.240;8.798;2024-03-07T11:23:36;8.50;99.90
31765;DHT22;18338;53.240;8.798;2024-03-07T11:26:07;8.50;99.90
31765;DHT22;18338;53.240;8.798;2024-03-07T11:28:39;8.90;99.90
31765;DHT22;18338;53.240;8.798;2024-03-07T11:31:09;9.20;99.90
31765;DHT22;18338;53.240;8.798;2024-03-07T11:33:39;9.10;99.90
31765;DHT22;18338;53.240;8.798;2024-03-07T11:36:08;9.80;99.90
31765;DHT22;18338;53.240;8.798;2024-03-07T11:38:44;10.70;99.90
31765;DHT22;18338;53.240;8.798;2024-03-07T11:41:12;10.60;99.90
31765;DHT22;18338;53.240;8.798;2024-03-07T11:43:40;10.00;99.90
31765;DHT22;18338;53.240;8.798;2024-03-07T11:46:10;9.70;99.90
31765;DHT22;18338;53.240;8.798;2024-03-07T11:48:43;9.80;99.90
31765;DHT22;18338;53.240;8.798;2024-03-07T11:51:14;9.90;99.90
31765;DHT22;18338;53.240;8.798;2024-03-07T11:53:43;10.30;99.90
31765;DHT22;18338;53.240;8.798;2024-03-07T11:56:10;11.00;99.90
31765;DHT22;18338;53.240;8.798;2024-03-07T11:58:44;10.90;99.90
31765;DHT22;18338;53.240;8.798;2024-03-07T12:01:11;10.60;99.90
31765;DHT22;18338;53.240;8.798;2024-03-07T12:03:41;10.10;99.90
31765;DHT22;18338;53.240;8.798;2024-03-07T12:06:08;9.30;99.90
31765;DHT22;18338;53.240;8.798;2024-03-07T12:08:39;8.70;99.90
31765;DHT22;18338;53.240;8.798;2024-03-07T12:11:07;8.60;99.90
31765;DHT22;18338;53.240;8.798;2024-03-07T12:13:37;8.30;99.90
31765;DHT22;18338;53.240;8.798;2024-03-07T12:16:04;8.00;99.90
31765;DHT22;18338;53.240;8.798;2024-03-07T12:18:35;8.00;99.90
31765;DHT22;18338;53.240;8.798;2024-03-07T12:21:03;8.00;99.90
31765;DHT22;18338;53.240;8.798;2024-03-07T12:23:33;7.90;99.90
31765;DHT22;18338;53.240;8.798;2024-03-07T12:26:03;7.90;99.90
31765;DHT22;18338;53.240;8.798;2024-03-07T12:28:31;8.00;99.90
31765;DHT22;18338;53.240;8.798;2024-03-07T12:31:02;8.00;99.90
31765;DHT22;18338;53.240;8.798;2024-03-07T12:33:30;8.00;99.90
31765;DHT22;18338;53.240;8.798;2024-03-07T12:36:02;8.20;99.90
31765;DHT22;18338;53.240;8.798;2024-03-07T12:38:33;8.00;99.90
31765;DHT22;18338;53.240;8.798;2024-03-07T12:41:10;8.00;99.90
31765;DHT22;18338;53.240;8.798;2024-03-07T12:43:43;8.10;99.90
31765;DHT22;18338;53.240;8.798;2024-03-07T12:46:13;8.10;99.90
31765;DHT22;18338;53.240;8.798;2024-03-07T12:48:42;7.80;99.90
31765;DHT22;18338;53.240;8.798;2024-03-07T12:51:11;7.80;99.90
31765;DHT22;18338;53.240;8.798;2024-03-07T12:53:43;8.00;99.90
31765;DHT22;18338;53.240;8.798;2024-03-07T12:56:10;8.20;99.90
31765;DHT22;18338;53.240;8.798;2024-03-07T12:58:37;8.50;99.90
31765;DHT22;18338;53.240;8.798;2024-03-07T13:01:04;8.80;99.90
31765;DHT22;18338;53.240;8.798;2024-03-07T13:03:31;8.70;99.90
31765;DHT22;18338;53.240;8.798;2024-03-07T13:05:58;8.80;99.90
31765;DHT22;18338;53.240;8.798;2024-03-07T13:08:29;9.00;99.90
31765;DHT22;18338;53.240;8.798;2024-03-07T13:10:57;8.70;99.90
31765;DHT22;18338;53.240;8.798;2024-03-07T13:13:25;8.70;99.90
31765;DHT22;18338;53.240;8.798;2024-03-07T13:15:52;8.70;99.90
31765;DHT22;18338;53.240;8.798;2024-03-07T13:18:22;8.70;99.90
31765;DHT22;18338;53.240;8.798;2024-03-07T13:20:50;8.50;99.90
31765;DHT22;18338;53.240;8.798;2024-03-07T13:23:17;8.30;99.90
31765;DHT22;18338;53.240;8.798;2024-03-07T13:25:44;8.10;99.90
31765;DHT22;18338;53.240;8.798;2024-03-07T13:28:13;7.90;99.90
31765;DHT22;18338;53.240;8.798;2024-03-07T13:30:44;7.80;99.90
31765;DHT22;18338;53.240;8.798;2024-03-07T13:33:13;7.50;99.90
31765;DHT22;18338;53.240;8.798;2024-03-07T13:35:40;7.40;99.90
31765;DHT22;18338;53.240;8.798;2024-03-07T13:38:08;7.50;99.90
31765;DHT22;18338;53.240;8.798;2024-03-07T13:40:36;7.40;99.90
31765;DHT22;18338;53.240;8.798;2024-03-07T13:43:06;7.20;99.90
31765;DHT22;18338;53.240;8.798;2024-03-07T13:45:34;7.20;99.90
31765;DHT22;18338;53.240;8.798;2024-03-07T13:48:10;7.30;99.90
31765;DHT22;18338;53.240;8.798;2024-03-07T13:50:40;7.20;99.90
31765;DHT22;18338;53.240;8.798;2024-03-07T13:53:26;7.10;99.90
31765;DHT22;18338;53.240;8.798;2024-03-07T14:01:48;7.00;99.90
31765;DHT22;18338;53.240;8.798;2024-03-07T14:12:37;6.60;99.90
31765;DHT22;18338;53.240;8.798;2024-03-07T14:15:42;6.50;99.90
31765;DHT22;18338;53.240;8.798;2024-03-07T14:24:37;6.40;99.90
31765;DHT22;18338;53.240;8.798;2024-03-07T14:27:30;6.40;99.90
31765;DHT22;18338;53.240;8.798;2024-03-07T14:32:37;6.40;99.90
31765;DHT22;18338;53.240;8.798;2024-03-07T14:40:40;6.30;99.90
31765;DHT22;18338;53.240;8.798;2024-03-07T14:43:07;6.30;99.90
31765;DHT22;18338;53.240;8.798;2024-03-07T14:45:39;6.20;99.90
31765;DHT22;18338;53.240;8.798;2024-03-07T14:48:07;6.20;99.90
31765;DHT22;18338;53.240;8.798;2024-03-07T14:50:39;6.30;99.90
31765;DHT22;18338;53.240;8.798;2024-03-07T14:53:07;6.30;99.90
31765;DHT22;18338;53.240;8.798;2024-03-07T14:59:15;6.40;99.90
31765;DHT22;18338;53.240;8.798;2024-03-07T15:01:42;6.30;99.90
31765;DHT22;18338;53.240;8.798;2024-03-07T15:04:09;6.20;99.90
31765;DHT22;18338;53.240;8.798;2024-03-07T15:06:41;6.20;99.90
31765;DHT22;18338;53.240;8.798;2024-03-07T15:09:12;6.10;99.90
31765;DHT22;18338;53.240;8.798;2024-03-07T15:11:40;6.10;99.90
31765;DHT22;18338;53.240;8.798;2024-03-07T15:14:08;6.00;99.90
31765;DHT22;18338;53.240;8.798;2024-03-07T15:16:38;6.00;99.90
31765;DHT22;18338;53.240;8.798;2024-03-07T15:19:09;6.10;99.90
31765;DHT22;18338;53.240;8.798;2024-03-07T15:21:36;6.10;99.90
31765;DHT22;18338;53.240;8.798;2024-03-07T15:24:06;6.10;99.90
31765;DHT22;18338;53.240;8.798;2024-03-07T15:26:33;6.10;99.90
31765;DHT22;18338;53.240;8.798;2024-03-07T15:29:01;6.00;99.90
31765;DHT22;18338;53.240;8.798;2024-03-07T15:31:28;6.00;99.90
31765;DHT22;18338;53.240;8.798;2024-03-07T15:33:55;6.00;99.90
31765;DHT22;18338;53.240;8.798;2024-03-07T15:36:22;6.00;99.90
31765;DHT22;18338;53.240;8.798;2024-03-07T15:38:49;6.00;99.90
31765;DHT22;18338;53.240;8.798;2024-03-07T15:41:17;6.00;99.90
31765;DHT22;18338;53.240;8.798;2024-03-07T15:43:44;6.00;99.90
31765;DHT22;18338;53.240;8.798;2024-03-07T15:46:16;6.10;99.90
31765;DHT22;18338;53.240;8.798;2024-03-07T15:48:45;6.10;99.90
31765;DHT22;18338;53.240;8.798;2024-03-07T15:51:15;6.00;99.90
31765;DHT22;18338;53.240;8.798;2024-03-07T15:53:42;6.00;99.90
31765;DHT22;18338;53.240;8.798;2024-03-07T15:56:09;6.00;99.90
31765;DHT22;18338;53.240;8.798;2024-03-07T15:58:37;6.00;99.90
31765;DHT22;18338;53.240;8.798;2024-03-07T16:01:04;6.00;99.90
31765;DHT22;18338;53.240;8.798;2024-03-07T16:03:32;6.10;99.90
31765;DHT22;18338;53.240;8.798;2024-03-07T16:05:59;6.10;99.90
31765;DHT22;18338;53.240;8.798;2024-03-07T16:08:26;6.10;99.90
31765;DHT22;18338;53.240;8.798;2024-03-07T16:10:52;6.10;99.90
31765;DHT22;18338;53.240;8.798;2024-03-07T16:13:19;6.10;99.90
31765;DHT22;18338;53.240;8.798;2024-03-07T16:15:46;6.10;99.90
31765;DHT22;18338;53.240;8.798;2024-03-07T16:18:14;6.20;99.90
31765;DHT22;18338;53.240;8.798;2024-03-07T16:20:42;6.20;99.90
31765;DHT22;18338;53.240;8.798;2024-03-07T16:23:14;6.10;99.90
31765;DHT22;18338;53.240;8.798;2024-03-07T16:25:42;6.10;99.90
31765;DHT22;18338;53.240;8.798;2024-03-07T16:28:09;6.10;99.90
31765;DHT22;18338;53.240;8.798;2024-03-07T16:37:37;5.90;99.90